EW9525 Weather Reports


Display with metric or nautical units.
time (UTC)temp
F
wind
direction
speed
MPH
gust
MPH
rain 1hr
in
rain 24hr
in
rain mn
in
humidity
%
barometer
mb
20220808080041 62 300 2.0 2.0 0.00 0.00 0.00 84 1018.7
20220808074548 63 293 0.0 1.0 0.00 0.00 0.00 85 1019.1
20220808073042 63 293 0.0 0.0 0.00 0.00 0.00 84 1019.0
20220808071539 63 293 0.0 3.0 0.00 0.00 0.00 85 1018.9
20220808070038 63 329 0.0 1.0 0.00 0.00 0.00 87 1018.7
20220808064536 63 329 0.0 0.0 0.00 0.00 0.00 86 1018.6
20220808063041 63 329 0.0 1.0 0.00 0.00 0.00 85 1018.5
20220808061532 64 37 0.0 2.0 0.00 0.00 0.00 85 1018.3
20220808060030 64 37 0.0 3.0 0.00 0.00 0.00 84 1018.3
20220808054527 65 39 2.0 5.0 0.00 0.00 0.00 83 1018.2
20220808053033 65 32 5.0 9.0 0.00 0.00 0.00 82 1017.7
20220808051523 66 17 6.0 12.0 0.00 0.00 0.00 81 1017.5
20220808050016 67 16 5.0 11.0 0.00 0.00 0.00 82 1017.0
20220808044523 67 34 8.0 11.0 0.00 0.00 0.00 82 1016.9
20220808043018 67 33 6.0 10.0 0.00 0.00 0.00 82 1016.9
20220808041513 68 59 7.0 12.0 0.00 0.00 0.00 82 1016.6
20220808040013 68 34 7.0 15.0 0.00 0.00 0.00 80 1016.7
20220808034521 69 40 9.0 14.0 0.00 0.00 0.00 80 1016.8
20220808033009 69 55 5.0 10.0 0.00 0.00 0.00 80 1016.4
20220808031507 69 37 5.0 9.0 0.00 0.00 0.00 80 1015.9
20220808030005 69 52 4.0 8.0 0.00 0.00 0.00 80 1015.5
20220808024505 69 41 4.0 8.0 0.00 0.00 0.00 80 1015.4
20220808023003 69 33 5.0 11.0 0.00 0.00 0.00 79 1015.4
20220808021603 69 35 9.0 13.0 0.00 0.00 0.00 78 1015.2
20220808020002 70 18 7.0 12.0 0.00 0.00 0.00 75 1015.2
20220808014601 71 11 7.0 13.0 0.00 0.00 0.00 75 1015.1
20220808013100 71 25 10.0 16.0 0.00 0.00 0.00 74 1014.5
20220808011601 71 27 10.0 14.0 0.00 0.00 0.00 74 1014.0
20220808010054 72 17 9.0 15.0 0.00 0.00 0.00 74 1013.9
20220808004551 72 346 9.0 15.0 0.00 0.00 0.00 73 1013.6
20220808003053 72 6 8.0 16.0 0.00 0.00 0.00 73 1013.4
20220808001551 73 5 10.0 16.0 0.00 0.00 0.00 73 1013.4
20220808000050 73 7 11.0 16.0 0.00 0.00 0.00 73 1013.5
20220807234550 74 3 12.0 15.0 0.00 0.00 0.00 71 1013.3
20220807233049 75 341 11.0 16.0 0.00 0.00 0.00 71 1013.4
20220807231548 75 336 11.0 14.0 0.00 0.00 0.00 72 1013.9
20220807230100 76 345 10.0 17.0 0.00 0.00 0.00 70 1013.5
20220807224546 76 31 12.0 18.0 0.00 0.00 0.00 69 1013.6
20220807223044 76 349 11.0 19.0 0.00 0.00 0.00 68 1013.6
20220807221543 77 13 13.0 22.0 0.00 0.00 0.00 67 1013.2
20220807220046 77 1 14.0 18.0 0.00 0.00 0.00 68 1013.1
20220807214542 77 2 12.0 21.0 0.00 0.00 0.00 69 1012.7
20220807213049 77 338 14.0 22.0 0.00 0.00 0.00 68 1012.7
20220807211540 77 352 15.0 22.0 0.00 0.00 0.00 66 1012.7
20220807210040 77 2 13.0 20.0 0.00 0.00 0.00 67 1012.9
20220807204539 77 345 13.0 22.0 0.00 0.00 0.00 67 1013.2
20220807203043 78 340 13.0 23.0 0.00 0.00 0.00 67 1013.1
20220807201537 81 320 12.0 20.0 0.00 0.00 0.00 61 1012.9
20220807200035 80 323 12.0 18.0 0.00 0.00 0.00 62 1013.0
20220807194533 78 46 10.0 15.0 0.00 0.00 0.00 66 1012.9
20220807193031 77 8 8.0 15.0 0.00 0.00 0.00 67 1012.8
20220807191531 77 41 10.0 17.0 0.00 0.00 0.00 68 1012.8
20220807190027 77 328 13.0 17.0 0.00 0.00 0.00 69 1012.8
20220807184526 77 344 11.0 15.0 0.00 0.00 0.00 68 1013.0
20220807183034 74 334 4.0 11.0 0.00 0.00 0.00 74 1012.9
20220807181522 72 303 11.0 15.0 0.00 0.00 0.00 76 1012.8
20220807180021 72 306 10.0 17.0 0.00 0.00 0.00 76 1012.8
20220807174520 75 326 10.0 14.0 0.00 0.00 0.00 72 1012.5
20220807173019 76 311 11.0 16.0 0.00 0.00 0.00 71 1012.3
20220807171521 75 20 3.0 12.0 0.00 0.00 0.00 72 1012.2
20220807170016 74 3 6.0 10.0 0.00 0.00 0.00 75 1012.1
20220807164523 73 44 6.0 11.0 0.00 0.00 0.00 77 1011.8
20220807163012 72 19 9.0 13.0 0.00 0.00 0.00 79 1011.8
20220807161510 72 16 9.0 16.0 0.00 0.00 0.00 79 1011.7
20220807160010 71 10 11.0 15.0 0.00 0.00 0.00 80 1011.8
20220807154509 71 46 10.0 15.0 0.00 0.00 0.00 80 1011.7
20220807153008 70 349 8.0 14.0 0.00 0.00 0.00 83 1011.7
20220807151510 70 15 8.0 12.0 0.00 0.00 0.00 85 1011.6
20220807150006 69 15 8.0 11.0 0.00 0.00 0.00 86 1011.5
20220807144508 68 36 6.0 9.0 0.00 0.00 0.00 87 1011.4
20220807143003 68 24 7.0 12.0 0.00 0.00 0.00 87 1011.2
20220807141501 68 32 8.0 11.0 0.00 0.00 0.00 88 1011.0
20220807140100 68 45 7.0 12.0 0.00 0.00 0.00 88 1010.9
20220807134559 68 46 8.0 13.0 0.00 0.00 0.00 89 1010.8
20220807133112 67 24 6.0 10.0 0.00 0.00 0.00 90 1010.7
20220807131611 67 36 6.0 11.0 0.00 0.00 0.00 90 1010.6
20220807130054 67 25 6.0 10.0 0.00 0.00 0.00 89 1010.5
20220807124553 67 26 7.0 11.0 0.00 0.00 0.00 90 1010.5
20220807123053 67 24 9.0 13.0 0.00 0.00 0.00 90 1010.2
20220807121550 67 29 7.0 13.0 0.00 0.00 0.00 90 1010.1
20220807120050 67 28 8.0 12.0 0.00 0.00 0.00 90 1010.1
20220807114547 68 13 11.0 14.0 0.00 0.00 0.00 89 1009.7
20220807113055 69 359 10.0 14.0 0.00 0.00 0.00 88 1009.5
20220807111542 69 30 7.0 12.0 0.00 0.00 0.00 89 1009.0
20220807110042 69 25 9.0 15.0 0.00 0.00 0.00 89 1008.9
20220807104540 69 20 9.0 12.0 0.00 0.00 0.00 90 1008.8
20220807103039 69 4 10.0 14.0 0.00 0.00 0.00 90 1008.8
20220807101536 69 37 7.0 11.0 0.00 0.00 0.00 90 1008.6
20220807100035 69 22 6.0 8.0 0.00 0.00 0.00 90 1008.7
20220807094535 68 9 4.0 7.0 0.00 0.00 0.00 90 1008.7
20220807093032 68 345 3.0 6.0 0.00 0.00 0.00 90 1008.3
20220807091537 68 330 5.0 7.0 0.00 0.00 0.00 89 1008.4
20220807090028 68 348 3.0 7.0 0.00 0.00 0.00 89 1007.9
20220807084628 69 19 4.0 6.0 0.00 0.00 0.00 88 1007.9
20220807083027 69 342 4.0 6.0 0.00 0.00 0.00 88 1007.9
20220807081526 69 340 2.0 4.0 0.00 0.00 0.00 88 1008.1